Time;durP1;ratioP1;P1;durP2;ratioP2;P2;SDS_P1;SDS_P2;PMS_P1;PMS_P2;Temp;Humidity;BMP_temperature;BMP_pressure;BME280_temperature;BME280_humidity;BME280_pressure;Samples;Min_cycle;Max_cycle;Signal;HPM_P1;HPM_P2
2021/04/10 00:00:20;;;;;;;28.30;14.95;;;179.40;1228.80;;;;;;5062081;28;20373;-68
2021/04/10 00:02:50;;;;;;;20.63;13.40;;;179.40;1254.40;;;;;;5070526;28;20025;-68
2021/04/10 00:05:19;;;;;;;22.73;13.60;;;179.40;1254.40;;;;;;5068803;28;20032;-68
2021/04/10 00:07:45;;;;;;;31.35;15.20;;;179.40;1254.40;;;;;;5071420;28;20407;-68
2021/04/10 00:10:12;;;;;;;24.50;13.95;;;179.40;1254.40;;;;;;5069172;28;20025;-68
2021/04/10 00:12:38;;;;;;;30.98;14.43;;;179.40;1254.40;;;;;;5068492;28;21023;-67
2021/04/10 00:15:07;;;;;;;30.48;14.90;;;179.30;1280.00;;;;;;5068685;28;20045;-68
2021/04/10 00:17:33;;;;;;;26.30;13.68;;;179.30;1280.00;;;;;;5069653;28;20016;-67
2021/04/10 00:19:59;;;;;;;20.63;11.85;;;179.30;1280.00;;;;;;5062195;28;20471;-68
2021/04/10 00:22:24;;;;;;;25.40;13.77;;;179.30;1280.00;;;;;;5067813;28;20063;-68
2021/04/10 00:24:51;;;;;;;21.83;11.57;;;179.30;1305.60;;;;;;5069962;28;20079;-68
2021/04/10 00:27:16;;;;;;;23.83;13.10;;;179.20;1305.60;;;;;;5069948;28;20024;-68
2021/04/10 00:29:42;;;;;;;14.82;10.00;;;179.20;1305.60;;;;;;5069447;28;20021;-68
2021/04/10 00:32:08;;;;;;;22.10;10.80;;;179.20;1305.60;;;;;;5070168;28;20381;-68
2021/04/10 00:34:33;;;;;;;17.30;11.85;;;179.20;1305.60;;;;;;5069593;28;20115;-68
2021/04/10 00:36:59;;;;;;;19.67;11.10;;;179.30;1305.60;;;;;;5070328;28;20017;-68
2021/04/10 00:39:25;;;;;;;19.17;10.35;;;179.30;1280.00;;;;;;5073577;28;20051;-68
2021/04/10 00:41:50;;;;;;;17.63;10.25;;;179.30;1280.00;;;;;;5073621;28;20024;-68
2021/04/10 00:44:17;;;;;;;17.83;10.48;;;179.30;1305.60;;;;;;5073498;28;20028;-68
2021/04/10 00:46:43;;;;;;;18.33;9.93;;;179.40;1305.60;;;;;;5072226;28;20040;-68
2021/04/10 00:49:08;;;;;;;16.73;9.80;;;179.40;1280.00;;;;;;5072202;28;20467;-68
2021/04/10 00:51:35;;;;;;;18.92;11.18;;;179.40;1280.00;;;;;;5059670;28;20044;-68
2021/04/10 00:54:00;;;;;;;22.15;10.93;;;179.50;1280.00;;;;;;5085273;28;20036;-68
2021/04/10 00:56:26;;;;;;;19.45;10.57;;;179.50;1280.00;;;;;;5073235;28;20027;-68
2021/04/10 00:58:52;;;;;;;20.85;11.20;;;179.50;1280.00;;;;;;5071983;28;20391;-68
2021/04/10 01:01:18;;;;;;;18.20;10.73;;;179.50;1280.00;;;;;;5073277;28;20023;-68
2021/04/10 01:03:44;;;;;;;17.17;9.82;;;179.50;1280.00;;;;;;5072254;28;20114;-68
2021/04/10 01:06:11;;;;;;;17.95;10.32;;;179.40;1280.00;;;;;;5072988;28;20091;-69
2021/04/10 01:08:36;;;;;;;17.30;9.43;;;179.40;1280.00;;;;;;5073172;28;20418;-68
2021/04/10 01:11:27;;;;;;;12.65;9.15;;;179.50;1280.00;;;;;;5072906;28;20044;-68
2021/04/10 01:14:04;;;;;;;18.10;8.82;;;179.50;1280.00;;;;;;5071277;28;20111;-68
2021/04/10 01:16:38;;;;;;;14.68;9.07;;;179.50;1305.60;;;;;;5073058;28;20028;-67
2021/04/10 01:19:15;;;;;;;17.20;9.55;;;179.50;1280.00;;;;;;5071769;28;20017;-68
2021/04/10 01:22:11;;;;;;;16.85;9.75;;;179.50;1280.00;;;;;;5067800;28;20028;-67
2021/04/10 01:24:49;;;;;;;11.98;8.93;;;179.40;1280.00;;;;;;5071691;28;20044;-67
2021/04/10 01:27:37;;;;;;;17.08;8.98;;;179.40;1280.00;;;;;;5072628;28;20020;-67
2021/04/10 01:30:12;;;;;;;16.90;10.23;;;179.40;1280.00;;;;;;5072573;28;20024;-68
2021/04/10 01:33:00;;;;;;;15.68;8.77;;;179.40;1280.00;;;;;;5072317;28;20099;-67
2021/04/10 01:35:36;;;;;;;15.82;9.23;;;179.40;1280.00;;;;;;5072678;28;20021;-68
2021/04/10 01:38:06;;;;;;;15.18;8.88;;;179.30;1280.00;;;;;;5072373;28;20032;-68
2021/04/10 01:40:34;;;;;;;16.33;9.07;;;179.30;1280.00;;;;;;5072411;28;20016;-68
2021/04/10 01:43:02;;;;;;;14.48;8.40;;;179.30;1305.60;;;;;;5084790;28;20565;-68
2021/04/10 01:45:29;;;;;;;16.25;10.77;;;179.20;1305.60;;;;;;5071009;28;20119;-68
2021/04/10 01:47:59;;;;;;;18.88;10.93;;;154.50;1305.60;;;;;;5070769;28;20070;-68
2021/04/10 01:50:26;;;;;;;17.85;9.93;;;154.50;1331.20;;;;;;5064194;28;20064;-68
2021/04/10 01:52:55;;;;;;;16.85;9.20;;;154.40;1331.20;;;;;;5071256;28;20421;-68
2021/04/10 01:55:23;;;;;;;13.93;9.10;;;154.40;1331.20;;;;;;5071644;28;20083;-67
2021/04/10 01:57:49;;;;;;;12.85;8.10;;;154.40;1331.20;;;;;;5071980;28;20025;-68
2021/04/10 02:00:17;;;;;;;16.73;9.02;;;154.30;1356.80;;;;;;5071958;28;20035;-68
2021/04/10 02:02:43;;;;;;;15.70;10.27;;;154.30;1356.80;;;;;;5070746;28;20027;-68
2021/04/10 02:05:13;;;;;;;13.85;9.23;;;154.20;1356.80;;;;;;5071944;28;20063;-68
2021/04/10 02:07:42;;;;;;;15.80;10.20;;;154.10;1382.40;;;;;;5069228;28;20024;-68
2021/04/10 02:10:09;;;;;;;17.77;11.10;;;154.10;1382.40;;;;;;5071959;28;20376;-68
2021/04/10 02:12:37;;;;;;;17.15;9.45;;;154.00;1408.00;;;;;;5069879;28;20032;-67
2021/04/10 02:15:05;;;;;;;16.77;9.35;;;154.00;1408.00;;;;;;5071841;28;20062;-67
2021/04/10 02:17:31;;;;;;;15.45;8.73;;;153.90;1382.40;;;;;;5081652;28;20032;-67
2021/04/10 02:19:57;;;;;;;14.43;10.10;;;153.90;1408.00;;;;;;5065216;28;20122;-67
2021/04/10 02:22:25;;;;;;;15.90;9.75;;;153.90;1408.00;;;;;;5071941;28;20078;-67
2021/04/10 02:24:51;;;;;;;15.73;9.63;;;153.90;1408.00;;;;;;5069848;28;20041;-67
2021/04/10 02:27:17;;;;;;;14.10;9.80;;;153.90;1433.60;;;;;;5071778;28;20036;-68
2021/04/10 02:29:44;;;;;;;17.70;10.52;;;153.80;1433.60;;;;;;5071110;28;20050;-67
2021/04/10 02:32:21;;;;;;;17.08;10.45;;;153.80;1433.60;;;;;;5071665;28;20099;-68
2021/04/10 02:34:53;;;;;;;14.38;9.90;;;153.80;1433.60;;;;;;5071196;28;20024;-68
2021/04/10 02:37:19;;;;;;;16.10;10.00;;;153.80;1433.60;;;;;;5073739;28;20065;-68
2021/04/10 02:39:47;;;;;;;16.13;9.90;;;153.70;1433.60;;;;;;5071044;28;20012;-67
2021/04/10 02:42:15;;;;;;;14.68;9.25;;;153.70;1459.20;;;;;;5071080;28;20025;-67
2021/04/10 02:44:50;;;;;;;19.45;11.70;;;153.70;1459.20;;;;;;5064936;28;20085;-67
2021/04/10 02:47:20;;;;;;;18.08;10.63;;;153.60;1459.20;;;;;;5063676;28;20029;-67
2021/04/10 02:49:52;;;;;;;15.85;10.25;;;153.60;1459.20;;;;;;5071332;28;20483;-68
2021/04/10 02:52:27;;;;;;;15.55;9.55;;;153.60;1459.20;;;;;;5071107;28;20372;-68
2021/04/10 02:54:54;;;;;;;13.95;8.98;;;153.60;1484.80;;;;;;5070776;28;20056;-67
2021/04/10 02:57:21;;;;;;;18.48;10.80;;;153.60;1484.80;;;;;;5062518;28;20020;-67
2021/04/10 02:59:51;;;;;;;15.48;10.38;;;153.60;1484.80;;;;;;5066068;28;20049;-67
2021/04/10 03:02:18;;;;;;;14.50;9.43;;;128.90;1484.80;;;;;;5059302;28;20025;-67
2021/04/10 03:04:46;;;;;;;14.13;8.55;;;128.90;1484.80;;;;;;5071812;28;20419;-67
2021/04/10 03:07:13;;;;;;;16.23;9.98;;;128.90;1510.40;;;;;;5058241;28;20028;-68
2021/04/10 03:09:42;;;;;;;13.65;8.75;;;128.90;1510.40;;;;;;5054358;28;20036;-68
2021/04/10 03:12:14;;;;;;;18.30;10.35;;;128.80;1510.40;;;;;;5057405;28;20020;-68
2021/04/10 03:14:41;;;;;;;16.65;10.10;;;128.80;1510.40;;;;;;5059089;28;20085;-68
2021/04/10 03:17:14;;;;;;;16.40;10.30;;;128.80;1536.00;;;;;;5055702;28;20102;-68
2021/04/10 03:19:42;;;;;;;13.82;8.80;;;128.80;1536.00;;;;;;5057286;28;20108;-68
2021/04/10 03:22:09;;;;;;;21.15;10.07;;;128.70;1536.00;;;;;;5053516;28;20016;-68
2021/04/10 03:24:35;;;;;;;16.25;9.85;;;128.70;1561.60;;;;;;5052969;28;20123;-67
2021/04/10 03:27:02;;;;;;;16.27;10.13;;;128.70;1561.60;;;;;;5055511;28;20071;-68
2021/04/10 03:29:28;;;;;;;15.75;10.15;;;128.60;1561.60;;;;;;5055875;28;20070;-68
2021/04/10 03:31:56;;;;;;;21.20;10.15;;;128.60;1561.60;;;;;;5059517;28;20044;-68
2021/04/10 03:34:24;;;;;;;15.32;10.55;;;128.60;1561.60;;;;;;5056726;28;20101;-67
2021/04/10 03:36:50;;;;;;;17.38;10.73;;;128.60;1587.20;;;;;;5054871;28;20028;-68
2021/04/10 03:39:16;;;;;;;15.63;11.20;;;128.60;1587.20;;;;;;5058875;28;20028;-68
2021/04/10 03:41:42;;;;;;;17.35;12.40;;;128.50;1587.20;;;;;;5060250;28;20016;-68
2021/04/10 03:44:08;;;;;;;16.77;11.45;;;128.50;1587.20;;;;;;5074232;28;20025;-67
2021/04/10 03:46:37;;;;;;;16.88;9.77;;;128.50;1587.20;;;;;;5068117;28;20174;-67
2021/04/10 03:49:07;;;;;;;15.05;9.75;;;128.50;1587.20;;;;;;5055597;28;20021;-67
2021/04/10 03:51:36;;;;;;;15.18;9.77;;;128.50;1612.80;;;;;;5053430;28;20392;-67
2021/04/10 03:54:02;;;;;;;16.60;9.88;;;128.50;1612.80;;;;;;5052757;28;20045;-67
2021/04/10 03:56:28;;;;;;;14.60;9.65;;;128.50;1612.80;;;;;;5053858;28;20057;-68
2021/04/10 03:58:54;;;;;;;13.32;8.65;;;128.50;1612.80;;;;;;5055077;28;20515;-67
2021/04/10 04:01:20;;;;;;;17.88;10.98;;;128.50;1612.80;;;;;;5064156;28;20368;-68
2021/04/10 04:03:45;;;;;;;15.82;9.40;;;128.50;1612.80;;;;;;5066515;28;20077;-68
2021/04/10 04:06:11;;;;;;;15.10;9.93;;;128.50;1612.80;;;;;;5070226;28;20367;-68
2021/04/10 04:08:37;;;;;;;16.00;10.07;;;128.50;1612.80;;;;;;5069773;28;20540;-68
2021/04/10 04:11:03;;;;;;;20.10;10.70;;;128.40;1612.80;;;;;;5071672;28;20031;-68
2021/04/10 04:13:28;;;;;;;14.68;10.95;;;128.50;1612.80;;;;;;5072136;28;20024;-68
2021/04/10 04:15:54;;;;;;;17.73;10.75;;;128.40;1612.80;;;;;;5073484;28;20090;-68
2021/04/10 04:18:20;;;;;;;16.60;10.80;;;128.50;1612.80;;;;;;5063277;28;20075;-68
2021/04/10 04:20:46;;;;;;;16.33;10.45;;;128.50;1612.80;;;;;;5059247;28;20100;-68
2021/04/10 04:23:11;;;;;;;22.05;12.02;;;128.50;1638.40;;;;;;5058679;28;20052;-68
2021/04/10 04:25:37;;;;;;;18.15;10.57;;;128.40;1612.80;;;;;;5059680;28;20021;-69
2021/04/10 04:28:03;;;;;;;17.20;10.15;;;128.50;1638.40;;;;;;5061440;28;20048;-68
2021/04/10 04:30:29;;;;;;;16.60;9.75;;;128.50;1638.40;;;;;;5063100;28;20033;-68
2021/04/10 04:32:55;;;;;;;16.67;9.18;;;128.50;1638.40;;;;;;5059975;28;20032;-68
2021/04/10 04:35:21;;;;;;;16.90;9.43;;;128.50;1638.40;;;;;;5063212;28;20107;-68
2021/04/10 04:37:46;;;;;;;23.55;10.38;;;128.50;1638.40;;;;;;5057511;28;20409;-68
2021/04/10 04:40:13;;;;;;;15.15;9.60;;;128.50;1638.40;;;;;;5062671;28;20036;-68
2021/04/10 04:42:39;;;;;;;17.45;8.82;;;128.50;1638.40;;;;;;5059469;28;20108;-69
2021/04/10 04:45:06;;;;;;;16.83;9.30;;;128.50;1612.80;;;;;;5058682;28;20148;-68
2021/04/10 04:47:32;;;;;;;14.15;9.70;;;128.50;1612.80;;;;;;5065624;28;20033;-68
2021/04/10 04:49:58;;;;;;;13.48;8.50;;;128.60;1612.80;;;;;;5088947;28;20028;-68
2021/04/10 04:52:24;;;;;;;26.95;12.00;;;128.60;1612.80;;;;;;5073622;28;20355;-68
2021/04/10 04:54:50;;;;;;;18.63;10.45;;;128.60;1587.20;;;;;;5073253;28;20475;-68
2021/04/10 04:57:16;;;;;;;15.25;9.63;;;128.70;1587.20;;;;;;5073104;28;20024;-68
2021/04/10 04:59:41;;;;;;;17.73;9.40;;;128.80;1587.20;;;;;;5072163;28;20479;-68
2021/04/10 05:02:07;;;;;;;15.68;9.23;;;128.80;1587.20;;;;;;5072757;28;20017;-68
2021/04/10 05:04:33;;;;;;;16.52;10.00;;;128.90;1561.60;;;;;;5073800;28;20030;-68
2021/04/10 05:06:59;;;;;;;17.27;10.32;;;153.60;1561.60;;;;;;5073091;28;20891;-68
2021/04/10 05:09:24;;;;;;;19.63;10.75;;;153.70;1561.60;;;;;;5071921;28;20032;-68
2021/04/10 05:11:51;;;;;;;14.90;9.48;;;153.60;1561.60;;;;;;5071786;28;20032;-67
2021/04/10 05:14:16;;;;;;;14.82;9.73;;;153.80;1561.60;;;;;;5072308;28;20136;-68
2021/04/10 05:16:42;;;;;;;13.10;9.80;;;153.90;1561.60;;;;;;5070089;28;20108;-68
2021/04/10 05:19:08;;;;;;;17.23;10.73;;;154.00;1561.60;;;;;;5072701;28;20052;-68
2021/04/10 05:21:34;;;;;;;16.60;9.00;;;154.10;1536.00;;;;;;5071158;28;20111;-68
2021/04/10 05:23:59;;;;;;;14.20;9.07;;;154.30;1536.00;;;;;;5072120;28;20475;-68
2021/04/10 05:26:25;;;;;;;19.65;10.65;;;154.40;1510.40;;;;;;5071847;28;20050;-68
2021/04/10 05:28:51;;;;;;;15.50;9.25;;;154.50;1510.40;;;;;;5064766;28;20055;-68
2021/04/10 05:31:17;;;;;;;16.77;9.48;;;179.30;1484.80;;;;;;5072658;28;20100;-68
2021/04/10 05:33:43;;;;;;;15.63;10.10;;;179.40;1484.80;;;;;;5072365;28;20056;-68
2021/04/10 05:36:09;;;;;;;14.40;8.98;;;179.60;1459.20;;;;;;5071347;28;20025;-68
2021/04/10 05:38:35;;;;;;;15.00;9.85;;;179.70;1459.20;;;;;;5072250;28;20086;-68
2021/04/10 05:41:00;;;;;;;15.90;9.02;;;179.90;1459.20;;;;;;5071403;28;20028;-68
2021/04/10 05:43:26;;;;;;;14.63;10.20;;;180.00;1433.60;;;;;;5072331;28;20533;-68
2021/04/10 05:45:52;;;;;;;13.75;9.23;;;180.10;1433.60;;;;;;5072471;28;20035;-67
2021/04/10 05:48:18;;;;;;;13.52;9.68;;;204.90;1433.60;;;;;;5072081;28;20086;-68
2021/04/10 05:50:43;;;;;;;16.67;10.25;;;205.10;1408.00;;;;;;5072380;28;20024;-69
2021/04/10 05:53:09;;;;;;;14.23;9.63;;;205.20;1408.00;;;;;;5072615;28;20504;-69
2021/04/10 05:55:35;;;;;;;18.80;11.05;;;205.40;1382.40;;;;;;5072947;28;20059;-69
2021/04/10 05:58:01;;;;;;;21.23;12.85;;;205.60;1382.40;;;;;;5064675;28;20017;-68
2021/04/10 06:00:26;;;;;;;26.40;16.45;;;230.40;1382.40;;;;;;5059498;28;20008;-68
2021/04/10 06:02:54;;;;;;;23.88;17.92;;;230.50;1356.80;;;;;;5054764;28;20056;-68
2021/04/10 06:05:21;;;;;;;23.58;15.65;;;230.70;1331.20;;;;;;5069673;28;20025;-68
2021/04/10 06:07:50;;;;;;;18.75;13.10;;;230.90;1305.60;;;;;;5056740;28;20024;-68
2021/04/10 06:10:18;;;;;;;18.58;12.40;;;231.10;1305.60;;;;;;5054535;28;20040;-68
2021/04/10 06:12:44;;;;;;;20.88;11.23;;;231.20;1280.00;;;;;;5066105;28;20029;-68
2021/04/10 06:15:13;;;;;;;17.27;11.00;;;231.30;1280.00;;;;;;5070433;28;20028;-68
2021/04/10 06:17:39;;;;;;;25.52;13.25;;;256.10;1280.00;;;;;;5071769;28;20043;-68
2021/04/10 06:20:07;;;;;;;18.75;12.80;;;256.30;1280.00;;;;;;5072411;28;20024;-68
2021/04/10 06:22:33;;;;;;;17.27;11.75;;;256.60;1254.40;;;;;;5068289;28;20073;-68
2021/04/10 06:24:58;;;;;;;15.85;11.02;;;256.80;1228.80;;;;;;5061067;28;20702;-68
2021/04/10 06:27:24;;;;;;;20.05;12.32;;;281.70;1254.40;;;;;;5059434;28;20031;-68
2021/04/10 06:29:50;;;;;;;17.08;11.48;;;281.80;1254.40;;;;;;5059822;28;20055;-68
2021/04/10 06:32:15;;;;;;;16.00;10.68;;;282.10;1228.80;;;;;;5074700;28;20021;-68
2021/04/10 06:34:41;;;;;;;18.40;11.20;;;282.20;1228.80;;;;;;5054759;28;20518;-67
2021/04/10 06:37:07;;;;;;;14.70;10.57;;;282.40;1203.20;;;;;;5055313;28;20032;-68
2021/04/10 06:39:33;;;;;;;18.85;10.48;;;282.50;1177.60;;;;;;5057335;28;20498;-68
2021/04/10 06:41:59;;;;;;;17.60;13.30;;;307.30;1203.20;;;;;;5055032;28;20024;-68
2021/04/10 06:44:26;;;;;;;16.50;12.65;;;307.70;1203.20;;;;;;5056206;28;20052;-68
2021/04/10 06:46:56;;;;;;;14.27;9.88;;;307.90;1177.60;;;;;;5054433;28;20091;-68
2021/04/10 06:49:24;;;;;;;17.08;10.13;;;308.00;1152.00;;;;;;5058136;28;20021;-68
2021/04/10 06:51:51;;;;;;;11.52;9.68;;;332.80;1152.00;;;;;;5061346;28;20073;-68
2021/04/10 06:54:20;;;;;;;16.02;10.45;;;333.00;1152.00;;;;;;5056968;28;20040;-68
2021/04/10 06:56:57;;;;;;;14.90;10.63;;;332.90;1152.00;;;;;;5060519;28;20017;-69
2021/04/10 07:00:00;;;;;;;17.95;10.60;;;333.30;1126.40;;;;;;5065727;28;20399;-69
2021/04/10 07:02:27;;;;;;;16.92;10.43;;;333.60;1100.80;;;;;;5028378;28;20667;-69
2021/04/10 07:04:56;;;;;;;14.85;9.93;;;333.60;1100.80;;;;;;5012063;28;20138;-69
2021/04/10 07:07:23;;;;;;;17.73;10.05;;;333.70;1100.80;;;;;;5028014;28;20108;-69
2021/04/10 07:09:49;;;;;;;12.85;9.70;;;358.60;1075.20;;;;;;5028684;28;20136;-69
2021/04/10 07:12:16;;;;;;;15.10;9.75;;;358.80;1075.20;;;;;;5026336;28;20037;-69
2021/04/10 07:14:41;;;;;;;14.52;9.07;;;359.10;1049.60;;;;;;5019225;28;20528;-69
2021/04/10 07:17:07;;;;;;;13.35;9.35;;;359.00;1024.00;;;;;;5028349;28;20064;-69
2021/04/10 07:19:33;;;;;;;13.52;9.23;;;359.10;1024.00;;;;;;5027865;28;20021;-68
2021/04/10 07:22:03;;;;;;;17.38;8.82;;;358.90;1024.00;;;;;;5027171;28;20500;-69
2021/04/10 07:24:35;;;;;;;15.75;10.23;;;359.00;1024.00;;;;;;5025485;28;20033;-69
2021/04/10 07:27:01;;;;;;;12.18;8.25;;;384.10;998.40;;;;;;5027428;28;20606;-69
2021/04/10 07:29:47;;;;;;;14.35;8.98;;;384.10;972.80;;;;;;5027632;28;20041;-68
2021/04/10 07:32:33;;;;;;;15.10;8.93;;;384.00;998.40;;;;;;5026980;28;20022;-69
2021/04/10 07:35:00;;;;;;;;;;;384.30;998.40;;;;;;5027391;28;20030;-69
2021/04/10 07:37:49;;;;;;;13.30;8.32;;;384.30;972.80;;;;;;5054808;28;19908;-69
2021/04/10 07:40:14;;;;;;;14.48;8.50;;;384.70;972.80;;;;;;5058628;28;20464;-71
2021/04/10 07:42:44;;;;;;;17.45;8.68;;;384.90;921.60;;;;;;5060130;28;20057;-69
2021/04/10 07:45:26;;;;;;;14.20;9.20;;;409.60;947.20;;;;;;5049906;28;20021;-69
2021/04/10 07:48:04;;;;;;;19.73;9.52;;;410.20;921.60;;;;;;5061578;28;20478;-69
2021/04/10 07:50:33;;;;;;;19.10;10.55;;;410.10;947.20;;;;;;5070496;28;20055;-71
2021/04/10 07:53:20;;;;;;;14.60;9.50;;;410.30;921.60;;;;;;5068757;28;20044;-69
2021/04/10 07:55:46;;;;;;;14.65;8.98;;;435.40;896.00;;;;;;5065859;28;20045;-70
2021/04/10 07:58:20;;;;;;;12.70;7.72;;;435.60;870.40;;;;;;5065537;28;20045;-69
2021/04/10 08:00:46;;;;;;;13.55;8.32;;;435.70;844.80;;;;;;5062288;28;20083;-70
2021/04/10 08:03:32;;;;;;;18.25;8.35;;;436.10;844.80;;;;;;5068389;28;20024;-70
2021/04/10 08:06:06;;;;;;;14.77;7.43;;;436.10;844.80;;;;;;5065585;28;20029;-69
2021/04/10 08:08:59;;;;;;;12.60;8.80;;;461.10;870.40;;;;;;5053210;28;20031;-69
2021/04/10 08:11:39;;;;;;;20.55;11.02;;;436.10;844.80;;;;;;5075467;28;20505;-70
2021/04/10 08:14:07;;;;;;;13.50;7.13;;;460.80;870.40;;;;;;5059439;28;20025;-70
2021/04/10 08:16:45;;;;;;;11.40;7.20;;;461.20;844.80;;;;;;5064831;28;20075;-70
2021/04/10 08:19:12;;;;;;;15.52;8.20;;;461.60;819.20;;;;;;5061081;28;20048;-70
2021/04/10 08:21:49;;;;;;;16.45;7.88;;;486.50;819.20;;;;;;5063696;28;20150;-70
2021/04/10 08:24:24;;;;;;;15.48;7.53;;;486.70;793.60;;;;;;5065120;28;20040;-70
2021/04/10 08:26:51;;;;;;;14.55;7.78;;;486.90;768.00;;;;;;5062316;28;20083;-70
2021/04/10 08:29:18;;;;;;;19.45;10.80;;;486.50;768.00;;;;;;5064323;28;20052;-70
2021/04/10 08:31:44;;;;;;;11.18;6.85;;;486.80;768.00;;;;;;5063602;28;20463;-69
2021/04/10 08:34:12;;;;;;;9.30;6.53;;;486.60;793.60;;;;;;5064344;28;20142;-69
2021/04/10 08:36:40;;;;;;;13.77;7.18;;;486.90;793.60;;;;;;5064709;28;20033;-69
2021/04/10 08:39:11;;;;;;;11.77;6.03;;;486.80;793.60;;;;;;5056958;28;20158;-69
2021/04/10 08:41:40;;;;;;;7.88;5.60;;;512.00;742.40;;;;;;5059284;28;20028;-69
2021/04/10 08:44:08;;;;;;;7.97;5.97;;;512.00;742.40;;;;;;5061147;28;20025;-70
2021/04/10 08:46:37;;;;;;;9.40;5.93;;;512.30;691.20;;;;;;5061111;28;20119;-70
2021/04/10 08:49:04;;;;;;;8.60;5.20;;;512.50;716.80;;;;;;5065171;28;20109;-70
2021/04/10 08:51:38;;;;;;;8.13;4.65;;;537.90;716.80;;;;;;5062184;28;20368;-70
2021/04/10 08:54:11;;;;;;;8.95;4.40;;;538.10;691.20;;;;;;5065517;28;20112;-70
2021/04/10 08:56:38;;;;;;;10.55;5.00;;;538.50;691.20;;;;;;5059924;28;20483;-70
2021/04/10 08:59:15;;;;;;;8.18;4.70;;;563.40;691.20;;;;;;5069649;28;20079;-70
2021/04/10 09:01:42;;;;;;;7.63;4.53;;;563.60;691.20;;;;;;5059034;28;20090;-70
2021/04/10 09:04:12;;;;;;;7.18;4.25;;;563.60;691.20;;;;;;5069488;28;20050;-70
2021/04/10 09:06:38;;;;;;;9.40;3.80;;;563.40;665.60;;;;;;5065454;28;20494;-70
2021/04/10 09:09:15;;;;;;;7.53;4.15;;;563.30;691.20;;;;;;5060857;28;20036;-70
2021/04/10 09:11:43;;;;;;;6.78;4.55;;;538.20;665.60;;;;;;5074591;28;20070;-70
2021/04/10 09:14:10;;;;;;;8.15;4.45;;;563.70;665.60;;;;;;5055172;28;20029;-70
2021/04/10 09:16:38;;;;;;;7.32;3.20;;;538.50;665.60;;;;;;5065082;28;20078;-70
2021/04/10 09:19:12;;;;;;;4.55;2.92;;;537.70;691.20;;;;;;5064660;28;20479;-71
2021/04/10 09:21:40;;;;;;;6.30;3.30;;;538.00;691.20;;;;;;5063420;28;20016;-69
2021/04/10 09:24:31;;;;;;;10.48;3.92;;;564.10;665.60;;;;;;5074657;28;20496;-69
2021/04/10 09:26:58;;;;;;;7.88;4.13;;;589.20;665.60;;;;;;5066640;28;21288;-69
2021/04/10 09:29:25;;;;;;;5.22;2.80;;;614.70;614.40;;;;;;5063403;28;20021;-69
2021/04/10 09:32:01;;;;;;;5.32;3.25;;;589.70;614.40;;;;;;5057859;28;20032;-69
2021/04/10 09:34:46;;;;;;;;;;;589.30;640.00;;;;;;5067930;28;20155;-70
2021/04/10 09:37:32;;;;;;;7.45;3.80;;;614.50;614.40;;;;;;5066785;28;19905;-69
2021/04/10 09:40:09;;;;;;;7.57;2.80;;;614.90;614.40;;;;;;5068392;28;20028;-69
2021/04/10 09:42:34;;;;;;;5.80;3.47;;;615.00;588.80;;;;;;5068434;28;20081;-69
2021/04/10 09:45:06;;;;;;;7.45;3.53;;;640.00;588.80;;;;;;5066088;28;20402;-69
2021/04/10 09:48:01;;;;;;;6.93;3.78;;;640.20;563.20;;;;;;5067182;28;20134;-69
2021/04/10 09:50:29;;;;;;;5.88;3.60;;;640.10;563.20;;;;;;5068601;28;20075;-69
2021/04/10 09:53:05;;;;;;;6.22;3.85;;;615.30;588.80;;;;;;5064944;28;20483;-70
2021/04/10 09:55:37;;;;;;;;;;;640.40;563.20;;;;;;5065444;28;20055;-67
2021/04/10 09:58:11;;;;;;;5.78;3.83;;;665.70;563.20;;;;;;5067009;28;19912;-69
2021/04/10 10:00:42;;;;;;;9.73;5.88;;;665.70;563.20;;;;;;5066480;28;20068;-69
2021/04/10 10:03:09;;;;;;;7.18;3.85;;;665.90;563.20;;;;;;5065188;28;20032;-69
2021/04/10 10:06:02;;;;;;;7.13;3.65;;;665.70;563.20;;;;;;5059153;28;20021;-69
2021/04/10 10:08:32;;;;;;;5.90;3.53;;;665.70;563.20;;;;;;5053816;28;20029;-69
2021/04/10 10:11:07;;;;;;;5.55;2.65;;;640.70;563.20;;;;;;5059251;28;20025;-69
2021/04/10 10:13:35;;;;;;;5.95;3.33;;;665.90;563.20;;;;;;5057327;28;20029;-70
2021/04/10 10:16:01;;;;;;;6.60;4.22;;;665.70;563.20;;;;;;5067004;28;20025;-70
2021/04/10 10:18:33;;;;;;;6.88;3.22;;;665.80;563.20;;;;;;5054111;28;20025;-72
2021/04/10 10:21:14;;;;;;;6.10;3.70;;;665.80;563.20;;;;;;5053919;28;20016;-70
2021/04/10 10:23:49;;;;;;;8.10;4.28;;;640.20;588.80;;;;;;5055329;28;20032;-70
2021/04/10 10:26:27;;;;;;;5.78;3.67;;;640.60;563.20;;;;;;5055820;28;20018;-70
2021/04/10 10:28:59;;;;;;;12.68;7.57;;;665.80;588.80;;;;;;5055451;28;20082;-70
2021/04/10 10:31:26;;;;;;;5.95;3.05;;;666.40;537.60;;;;;;5055283;28;20021;-70
2021/04/10 10:33:52;;;;;;;13.30;5.30;;;691.70;537.60;;;;;;5054044;28;20064;-70
2021/04/10 10:36:20;;;;;;;6.47;4.10;;;691.90;537.60;;;;;;5053128;28;20403;-70
2021/04/10 10:38:48;;;;;;;6.82;3.63;;;716.80;537.60;;;;;;5064650;28;20021;-68
2021/04/10 10:41:16;;;;;;;7.88;3.90;;;717.00;537.60;;;;;;5051714;28;20099;-67
2021/04/10 10:43:43;;;;;;;9.68;3.63;;;716.90;512.00;;;;;;5051344;28;20492;-68
2021/04/10 10:46:20;;;;;;;6.00;4.18;;;692.00;512.00;;;;;;5052207;28;20399;-67
2021/04/10 10:48:47;;;;;;;7.47;3.58;;;665.80;588.80;;;;;;5051944;28;20472;-68
2021/04/10 10:51:21;;;;;;;7.15;4.13;;;666.10;563.20;;;;;;5056882;28;20036;-70
2021/04/10 10:53:51;;;;;;;6.72;3.28;;;665.90;563.20;;;;;;5055325;28;20118;-72
2021/04/10 10:56:26;;;;;;;5.90;3.10;;;614.70;614.40;;;;;;5065894;28;20025;-71
2021/04/10 10:58:57;;;;;;;7.32;3.80;;;589.70;640.00;;;;;;5061885;28;20714;-71
2021/04/10 11:01:33;;;;;;;7.30;3.75;;;640.30;588.80;;;;;;5059062;28;20074;-72
2021/04/10 11:04:05;;;;;;;6.00;3.65;;;640.20;588.80;;;;;;5053578;28;20013;-71
2021/04/10 11:06:41;;;;;;;7.15;3.60;;;589.40;640.00;;;;;;5055470;28;20025;-70
2021/04/10 11:09:11;;;;;;;7.47;3.55;;;589.30;665.60;;;;;;5057207;28;20029;-70
2021/04/10 11:11:40;;;;;;;8.27;3.75;;;589.20;640.00;;;;;;5056032;28;20082;-71
2021/04/10 11:14:07;;;;;;;7.78;3.95;;;589.10;665.60;;;;;;5056867;28;20021;-71
2021/04/10 11:16:44;;;;;;;8.50;5.22;;;615.00;614.40;;;;;;5059043;28;20102;-70
2021/04/10 11:19:10;;;;;;;6.55;3.33;;;666.10;588.80;;;;;;5072974;28;20033;-70
2021/04/10 11:21:36;;;;;;;5.75;3.70;;;691.40;563.20;;;;;;5058402;28;20024;-70
2021/04/10 11:24:27;;;;;;;5.35;3.05;;;640.30;588.80;;;;;;5064850;28;20028;-71
2021/04/10 11:26:55;;;;;;;8.27;4.50;;;615.00;614.40;;;;;;5054503;28;20044;-70
2021/04/10 11:29:27;;;;;;;5.90;3.63;;;640.40;588.80;;;;;;5055227;28;20035;-69
2021/04/10 11:32:11;;;;;;;6.40;3.55;;;640.50;563.20;;;;;;5059645;28;20048;-70
2021/04/10 11:34:42;;;;;;;9.45;2.95;;;665.70;588.80;;;;;;5069482;28;20029;-71
2021/04/10 11:37:10;;;;;;;9.85;3.22;;;665.60;588.80;;;;;;5067518;28;20028;-68
2021/04/10 11:39:57;;;;;;;7.05;4.30;;;640.30;588.80;;;;;;5059715;28;20452;-71
2021/04/10 11:42:33;;;;;;;13.07;3.13;;;640.00;588.80;;;;;;5056121;28;20021;-71
2021/04/10 11:45:05;;;;;;;5.28;2.53;;;665.60;588.80;;;;;;5062157;28;20069;-71
2021/04/10 11:47:33;;;;;;;7.20;3.40;;;640.40;563.20;;;;;;5053953;28;20027;-71
2021/04/10 11:50:23;;;;;;;8.68;3.72;;;665.90;588.80;;;;;;5055427;28;20040;-71
2021/04/10 11:52:49;;;;;;;9.15;3.40;;;665.60;588.80;;;;;;5070158;28;20143;-71
2021/04/10 11:55:17;;;;;;;5.07;2.85;;;615.10;614.40;;;;;;5058298;28;20061;-69
2021/04/10 11:57:44;;;;;;;5.53;2.70;;;589.70;640.00;;;;;;5056067;28;20029;-68
2021/04/10 12:00:17;;;;;;;6.32;3.80;;;589.50;665.60;;;;;;5063562;28;20025;-68
2021/04/10 12:02:45;;;;;;;8.32;4.00;;;588.80;691.20;;;;;;5054564;28;20036;-68
2021/04/10 12:05:30;;;;;;;7.82;3.60;;;564.00;691.20;;;;;;5053618;28;20017;-69
2021/04/10 12:08:12;;;;;;;7.63;3.60;;;589.00;691.20;;;;;;5052452;28;20017;-69
2021/04/10 12:10:41;;;;;;;5.68;2.83;;;589.10;665.60;;;;;;5054975;28;20017;-67
2021/04/10 12:13:07;;;;;;;7.40;3.65;;;614.60;614.40;;;;;;5054074;28;20058;-67
2021/04/10 12:15:35;;;;;;;8.45;2.72;;;615.00;614.40;;;;;;5058218;28;20021;-69
2021/04/10 12:18:02;;;;;;;6.07;3.75;;;614.70;614.40;;;;;;5053101;28;20031;-68
2021/04/10 12:20:28;;;;;;;5.03;2.83;;;589.70;640.00;;;;;;5051704;28;20025;-68
2021/04/10 12:22:54;;;;;;;4.95;2.90;;;615.20;588.80;;;;;;5056891;28;20074;-70